• Join FlightAware (Why Join?)
  • Login
  • US Flag 
Rudolph Flight #1: Arrived! 
08:38AM EST


 

Airport Tracker/Info


-or-


 

Live Flight TrackerFlight Track Log ✈ CES5387 ✈ 13-Jul-2013 ✈ ZSOF / HFE - ZGKL / KWL

Flight Track Log - Related Links

Times and Time Zones

All times are in EDT time to prevent confusion due to time zone crossing. See the CES5387 flight status page for this flight to view local times or setup timezone preferences in your user account.

Time Position Orientation Groundspeed Altitude Reporting Facility
EDT Latitude Longitude Course Direction KTS MPH feet Rate Location/Type
10:16AM 30.7784 116.0987 226° Southwest  Level Estimated
10:17AM 30.7009 116.0074 225° Southwest  Level Estimated
10:18AM 30.6233 115.9163 225° Southwest  Level Estimated
10:19AM 30.5457 115.8254 225° Southwest  Level Estimated
10:20AM 30.4680 115.7346 225° Southwest  Level Estimated
10:21AM 30.3902 115.6439 225° Southwest  Level Estimated
10:22AM 30.3124 115.5534 225° Southwest  Level Estimated
10:23AM 30.2345 115.4630 225° Southwest  Level Estimated
10:24AM 30.1565 115.3728 225° Southwest  Level Estimated
10:25AM 30.0785 115.2827 225° Southwest  Level Estimated
10:26AM 30.0005 115.1927 225° Southwest  Level Estimated
10:27AM 29.9223 115.1030 225° Southwest  Level Estimated
10:28AM 29.8442 115.0133 225° Southwest  Level Estimated
10:29AM 29.7659 114.9238 225° Southwest  Level Estimated
10:30AM 29.6876 114.8344 225° Southwest  Level Estimated
10:31AM 29.6092 114.7451 225° Southwest  Level Estimated
10:32AM 29.5308 114.6560 225° Southwest  Level Estimated
10:33AM 29.4523 114.5671 225° Southwest  Level Estimated
10:34AM 29.3738 114.4782 225° Southwest  Level Estimated
10:35AM 29.2951 114.3895 225° Southwest  Level Estimated
10:36AM 29.2165 114.3010 225° Southwest  Level Estimated
10:37AM 29.1377 114.2126 224° Southwest  Level Estimated
10:38AM 29.0590 114.1243 224° Southwest  Level Estimated
10:39AM 28.9801 114.0361 224° Southwest  Level Estimated
10:40AM 28.9012 113.9481 224° Southwest  Level Estimated
10:41AM 28.8223 113.8602 224° Southwest  Level Estimated
10:42AM 28.7432 113.7725 224° Southwest  Level Estimated
10:43AM 28.6642 113.6849 224° Southwest  Level Estimated
10:44AM 28.5851 113.5974 224° Southwest  Level Estimated
10:45AM 28.5059 113.5100 224° Southwest  Level Estimated
10:46AM 28.4266 113.4228 224° Southwest  Level Estimated
10:47AM 28.3473 113.3357 224° Southwest  Level Estimated
10:48AM 28.2680 113.2488 224° Southwest  Level Estimated
10:49AM 28.1886 113.1619 224° Southwest  Level Estimated
10:50AM 28.1091 113.0752 224° Southwest  Level Estimated
10:51AM 28.0296 112.9887 224° Southwest  Level Estimated
10:52AM 27.9501 112.9022 224° Southwest  Level Estimated
10:53AM 27.8704 112.8159 224° Southwest  Level Estimated
10:54AM 27.7908 112.7297 224° Southwest  Level Estimated
10:55AM 27.7110 112.6436 224° Southwest  Level Estimated
10:56AM 27.6313 112.5577 224° Southwest  Level Estimated
10:57AM 27.5514 112.4719 224° Southwest  Level Estimated
10:58AM 27.4715 112.3862 224° Southwest  Level Estimated
10:59AM 27.3916 112.3006 224° Southwest  Level Estimated
11:00AM 27.3116 112.2152 224° Southwest  Level Estimated
11:01AM 27.2316 112.1299 223° Southwest  Level Estimated
11:02AM 27.1515 112.0447 223° Southwest  Level Estimated
11:03AM 27.0713 111.9596 223° Southwest  Level Estimated
11:04AM 26.9911 111.8746 223° Southwest  Level Estimated
11:05AM 26.9109 111.7898 223° Southwest  Level Estimated
11:06AM 26.8306 111.7051 223° Southwest  Level Estimated
11:07AM 26.7502 111.6205 223° Southwest  Level Estimated
11:08AM 26.6698 111.5360 223° Southwest  Level Estimated
11:09AM 26.5894 111.4517 223° Southwest  Level Estimated
11:10AM 26.5089 111.3675 223° Southwest  Level Estimated
11:11AM 26.4283 111.2833 223° Southwest  Level Estimated
11:12AM 26.3477 111.1993 223° Southwest  Level Estimated
11:13AM 26.2671 111.1155 223° Southwest  Level Estimated
11:14AM 26.1864 111.0317 223° Southwest  Level Estimated
11:15AM 26.1057 110.9481 223° Southwest  Level Estimated
11:16AM 26.0249 110.8645 223° Southwest  Level Estimated
11:17AM 25.9440 110.7811 223° Southwest  Level Estimated
11:18AM 25.8631 110.6978 223° Southwest  Level Estimated
11:19AM 25.7822 110.6146 223° Southwest  Level Estimated
11:20AM 25.7012 110.5315 223° Southwest  Level Estimated
11:21AM 25.6202 110.4486 223° Southwest  Level Estimated
11:22AM 25.5391 110.3657 223° Southwest  Level Estimated
11:23AM 25.4580 110.2830 223° Southwest  Level Estimated
11:24AM 25.3769 110.2003 223° Southwest  Level Estimated
11:25AM 25.2956 110.1178 223° Southwest  Level Estimated
11:26AM 25.2181 110.0392 223° Southwest  Level Estimated
11:27AM 25.2181 110.0392 214° Southwest  Level Estimated
11:28AM 25.2181 110.0392 214° Southwest  Level Estimated
11:29AM 25.2181 110.0392 214° Southwest  Level Estimated
11:30AM 25.2181 110.0392 214° Southwest  Level Estimated
11:31AM 25.2181 110.0392 214° Southwest  Level Estimated
11:32AM 25.2181 110.0392 214° Southwest  Level Estimated
11:33AM 25.2181 110.0392 214° Southwest  Level Estimated
11:34AM 25.2181 110.0392 214° Southwest  Level Estimated
11:35AM 25.2181 110.0392 214° Southwest  Level Estimated
11:36AM 25.2181 110.0392 214° Southwest  Level Estimated
11:37AM 25.2181 110.0392 214° Southwest  Level Estimated